createdAt,value
2023-01-31T00:00:31.546Z,9.07
2023-01-31T00:03:17.095Z,8.77
2023-01-31T00:06:24.311Z,8.50
2023-01-31T00:09:11.791Z,9.48
2023-01-31T00:11:56.982Z,8.38
2023-01-31T00:14:42.483Z,9.35
2023-01-31T00:17:28.397Z,8.73
2023-01-31T00:20:14.223Z,8.75
2023-01-31T00:22:59.624Z,8.68
2023-01-31T00:25:45.256Z,10.15
2023-01-31T00:28:30.700Z,9.63
2023-01-31T00:31:17.980Z,8.50
2023-01-31T00:34:03.804Z,9.63
2023-01-31T00:36:49.355Z,9.95
2023-01-31T00:39:34.770Z,9.15
2023-01-31T00:42:20.090Z,9.45
2023-01-31T00:45:06.472Z,10.27
2023-01-31T00:47:51.773Z,11.13
2023-01-31T00:50:37.853Z,9.90
2023-01-31T00:53:25.524Z,10.63
2023-01-31T00:56:14.379Z,8.48
2023-01-31T00:59:00.779Z,9.85
2023-01-31T01:01:46.415Z,9.32
2023-01-31T01:04:31.840Z,10.80
2023-01-31T01:07:17.189Z,9.82
2023-01-31T01:10:02.998Z,11.13
2023-01-31T01:12:48.814Z,9.73
2023-01-31T01:15:38.338Z,10.65
2023-01-31T01:18:23.877Z,9.27
2023-01-31T01:21:15.873Z,11.35
2023-01-31T01:24:02.587Z,9.50
2023-01-31T01:26:48.345Z,10.45
2023-01-31T01:29:34.157Z,11.65
2023-01-31T01:32:20.068Z,9.82
2023-01-31T01:35:06.527Z,10.02
2023-01-31T01:37:52.297Z,9.80
2023-01-31T01:44:59.926Z,10.95
2023-01-31T01:47:52.730Z,10.82
2023-01-31T01:50:45.455Z,11.13
2023-01-31T01:53:31.788Z,9.48
2023-01-31T01:56:22.568Z,9.32
2023-01-31T01:59:21.629Z,9.50
2023-01-31T02:02:07.519Z,11.30
2023-01-31T02:04:53.100Z,10.85
2023-01-31T02:07:38.845Z,9.45
2023-01-31T02:10:36.068Z,10.07
2023-01-31T02:13:25.010Z,11.88
2023-01-31T02:16:10.728Z,10.80
2023-01-31T02:18:57.058Z,10.18
2023-01-31T02:22:09.369Z,10.85
2023-01-31T02:25:10.510Z,10.00
2023-01-31T02:28:33.447Z,9.60
2023-01-31T02:31:27.787Z,12.27
2023-01-31T02:34:19.483Z,10.25
2023-01-31T02:37:30.534Z,11.55
2023-01-31T02:40:21.779Z,11.23
2023-01-31T02:43:19.523Z,10.88
2023-01-31T02:46:16.062Z,9.65
2023-01-31T02:49:36.988Z,11.18
2023-01-31T02:52:43.057Z,10.45
2023-01-31T02:55:58.740Z,9.73
2023-01-31T02:58:59.218Z,10.73
2023-01-31T03:01:48.357Z,10.88
2023-01-31T03:04:36.822Z,11.20
2023-01-31T03:07:29.381Z,10.57
2023-01-31T03:10:51.728Z,11.32
2023-01-31T03:14:03.074Z,10.63
2023-01-31T03:17:35.085Z,12.50
2023-01-31T03:20:28.165Z,8.73
2023-01-31T03:23:24.729Z,9.23
2023-01-31T03:26:10.794Z,9.77
2023-01-31T03:29:01.490Z,10.75
2023-01-31T03:31:58.696Z,9.63
2023-01-31T03:34:44.435Z,10.43
2023-01-31T03:37:39.660Z,9.80
2023-01-31T03:40:46.614Z,9.20
2023-01-31T03:43:44.637Z,9.45
2023-01-31T03:46:36.881Z,9.00
2023-01-31T03:49:26.280Z,9.32
2023-01-31T03:52:15.280Z,12.48
2023-01-31T03:55:16.954Z,10.97
2023-01-31T03:58:05.374Z,10.45
2023-01-31T04:00:52.919Z,10.32
2023-01-31T04:04:03.497Z,10.35
2023-01-31T04:06:49.583Z,9.52
2023-01-31T04:09:35.504Z,9.65
2023-01-31T04:12:21.063Z,9.90
2023-01-31T04:15:07.531Z,10.77
2023-01-31T04:17:52.879Z,10.98
2023-01-31T04:20:38.371Z,9.73
2023-01-31T04:23:25.012Z,10.40
2023-01-31T04:26:10.462Z,8.57
2023-01-31T04:28:56.118Z,10.35
2023-01-31T04:31:41.584Z,9.77
2023-01-31T04:34:27.038Z,9.07
2023-01-31T04:37:12.377Z,10.93
2023-01-31T04:39:57.826Z,10.45
2023-01-31T04:42:43.435Z,10.48
2023-01-31T04:45:28.893Z,10.35
2023-01-31T04:48:14.387Z,9.15
2023-01-31T04:50:59.723Z,12.43
2023-01-31T04:53:45.421Z,11.27
2023-01-31T04:56:32.031Z,11.35
2023-01-31T04:59:17.450Z,10.05
2023-01-31T05:02:02.845Z,10.23
2023-01-31T05:04:48.229Z,11.70
2023-01-31T05:07:33.719Z,9.82
2023-01-31T05:10:19.426Z,10.32
2023-01-31T05:13:05.013Z,9.85
2023-01-31T05:15:50.718Z,9.95
2023-01-31T05:18:36.305Z,9.05
2023-01-31T05:21:21.770Z,9.95
2023-01-31T05:24:08.173Z,10.30
2023-01-31T05:26:58.497Z,11.18
2023-01-31T05:29:44.195Z,9.85
2023-01-31T05:32:29.940Z,9.45
2023-01-31T05:35:15.223Z,11.85
2023-01-31T05:38:00.548Z,9.43
2023-01-31T05:40:46.524Z,9.95
2023-01-31T05:43:32.420Z,11.20
2023-01-31T05:46:18.069Z,9.93
2023-01-31T05:49:03.686Z,9.35
2023-01-31T05:51:48.905Z,10.05
2023-01-31T05:54:34.556Z,11.63
2023-01-31T05:57:20.021Z,11.73
2023-01-31T06:00:06.131Z,11.15
2023-01-31T06:02:58.745Z,11.57
2023-01-31T06:05:43.996Z,13.85
2023-01-31T06:08:29.462Z,13.30
2023-01-31T06:11:15.241Z,13.30
2023-01-31T06:14:00.937Z,13.75
2023-01-31T06:16:46.706Z,14.18
2023-01-31T06:19:32.421Z,15.00
2023-01-31T06:22:18.874Z,12.75
2023-01-31T06:25:05.070Z,13.68
2023-01-31T06:27:50.686Z,13.00
2023-01-31T06:30:36.524Z,12.98
2023-01-31T06:33:24.475Z,12.95
2023-01-31T06:36:19.332Z,12.63
2023-01-31T06:39:04.776Z,11.77
2023-01-31T06:41:50.363Z,12.82
2023-01-31T06:44:37.742Z,11.90
2023-01-31T06:47:23.714Z,13.02
2023-01-31T06:50:10.365Z,11.48
2023-01-31T06:52:55.624Z,12.32
2023-01-31T06:55:41.087Z,12.85
2023-01-31T06:58:28.070Z,11.88
2023-01-31T07:01:15.064Z,12.98
2023-01-31T07:04:01.996Z,13.00
2023-01-31T07:06:51.447Z,12.30
2023-01-31T07:09:40.591Z,12.18
2023-01-31T07:12:27.475Z,10.52
2023-01-31T07:15:15.199Z,12.23
2023-01-31T07:18:06.196Z,11.82
2023-01-31T07:20:55.155Z,13.50
2023-01-31T07:23:42.210Z,13.25
2023-01-31T07:26:34.249Z,14.38
2023-01-31T07:29:20.063Z,11.98
2023-01-31T07:35:43.965Z,10.93
2023-01-31T07:38:30.956Z,11.85
2023-01-31T07:41:16.564Z,11.82
2023-01-31T07:51:13.819Z,13.30
2023-01-31T07:53:59.328Z,14.48
2023-01-31T07:56:45.068Z,12.57
2023-01-31T07:59:30.733Z,13.73
2023-01-31T08:05:48.591Z,14.98
2023-01-31T08:08:47.544Z,17.42
2023-01-31T08:11:36.779Z,14.88
2023-01-31T08:14:49.055Z,16.52
2023-01-31T08:17:35.020Z,16.13
2023-01-31T08:20:22.096Z,16.33
2023-01-31T08:23:40.939Z,14.55
2023-01-31T08:30:05.382Z,11.68
2023-01-31T08:33:17.579Z,13.68
2023-01-31T08:36:12.959Z,15.82
2023-01-31T08:39:02.382Z,14.98
2023-01-31T08:42:15.185Z,13.40
2023-01-31T08:45:02.971Z,13.55
2023-01-31T08:47:59.209Z,13.68
2023-01-31T08:50:50.084Z,14.85
2023-01-31T08:53:42.248Z,11.00
2023-01-31T08:56:28.784Z,11.68
2023-01-31T08:59:16.113Z,9.65
2023-01-31T09:02:27.987Z,9.65
2023-01-31T09:05:39.173Z,11.50
2023-01-31T09:08:25.144Z,9.23
2023-01-31T09:11:20.240Z,9.38
2023-01-31T09:14:09.610Z,8.70
2023-01-31T09:17:00.393Z,6.22
2023-01-31T09:20:12.169Z,8.60
2023-01-31T09:22:59.005Z,7.88
2023-01-31T09:25:56.537Z,8.75
2023-01-31T09:28:43.810Z,8.68
2023-01-31T09:31:32.235Z,9.38
2023-01-31T09:34:19.439Z,10.30
2023-01-31T09:37:08.899Z,12.55
2023-01-31T09:43:42.031Z,12.65
2023-01-31T09:46:47.438Z,10.00
2023-01-31T09:53:23.135Z,10.25
2023-01-31T09:56:33.168Z,8.95
2023-01-31T09:59:21.564Z,11.23
2023-01-31T10:02:22.766Z,10.95
2023-01-31T10:05:20.351Z,15.73
2023-01-31T10:11:44.278Z,12.30
2023-01-31T10:14:44.152Z,12.13
2023-01-31T10:17:52.517Z,12.37
2023-01-31T10:20:42.994Z,12.60
2023-01-31T10:23:52.088Z,14.38
2023-01-31T10:26:45.887Z,10.68
2023-01-31T10:29:41.003Z,14.30
2023-01-31T10:32:44.271Z,12.70
2023-01-31T10:35:36.799Z,11.20
2023-01-31T10:38:35.789Z,11.18
2023-01-31T10:42:02.731Z,12.48
2023-01-31T10:44:54.085Z,10.02
2023-01-31T10:48:01.271Z,8.73
2023-01-31T10:51:02.986Z,9.90
2023-01-31T10:54:25.895Z,9.77
2023-01-31T10:57:11.532Z,10.48
2023-01-31T10:59:57.144Z,8.50
2023-01-31T11:02:42.572Z,9.40
2023-01-31T11:05:30.131Z,9.15
2023-01-31T11:08:36.432Z,8.25
2023-01-31T11:11:24.544Z,8.57
2023-01-31T11:14:18.775Z,9.13
2023-01-31T11:17:27.152Z,8.52
2023-01-31T11:20:31.322Z,10.27
2023-01-31T11:23:25.168Z,10.57
2023-01-31T11:26:10.935Z,11.52
2023-01-31T11:28:56.673Z,11.55
2023-01-31T11:31:45.633Z,10.75
2023-01-31T11:34:33.621Z,11.33
2023-01-31T11:37:19.454Z,13.32
2023-01-31T11:40:22.371Z,15.80
2023-01-31T11:43:13.976Z,13.20
2023-01-31T11:46:01.415Z,11.60
2023-01-31T11:48:47.743Z,15.30
2023-01-31T11:51:34.621Z,19.05
2023-01-31T11:54:26.792Z,15.88
2023-01-31T11:57:39.721Z,11.95
2023-01-31T12:00:28.515Z,17.30
2023-01-31T12:03:17.760Z,12.35
2023-01-31T12:06:08.394Z,12.20
2023-01-31T12:08:55.681Z,12.90
2023-01-31T12:11:53.542Z,13.90
2023-01-31T12:14:47.517Z,8.98
2023-01-31T12:17:42.567Z,10.95
2023-01-31T12:20:44.919Z,16.73
2023-01-31T12:27:46.966Z,9.27
2023-01-31T12:30:57.179Z,9.93
2023-01-31T12:34:18.218Z,9.07
2023-01-31T12:37:12.652Z,9.57
2023-01-31T12:40:25.141Z,9.40
2023-01-31T12:44:01.878Z,7.28
2023-01-31T12:47:10.892Z,8.10
2023-01-31T12:50:31.503Z,7.75
2023-01-31T12:53:37.428Z,8.13
2023-01-31T12:57:00.899Z,7.57
2023-01-31T13:00:05.605Z,7.43
2023-01-31T13:03:15.086Z,7.78
2023-01-31T13:06:15.445Z,7.60
2023-01-31T13:09:08.958Z,10.02
2023-01-31T13:12:01.841Z,9.65
2023-01-31T13:14:56.585Z,9.98
2023-01-31T13:17:43.113Z,7.97
2023-01-31T13:20:50.149Z,8.95
2023-01-31T13:23:46.540Z,8.05
2023-01-31T13:26:35.215Z,7.45
2023-01-31T13:29:27.584Z,7.50
2023-01-31T13:32:17.398Z,6.20
2023-01-31T13:35:26.053Z,9.32
2023-01-31T13:38:19.861Z,8.43
2023-01-31T13:41:08.099Z,7.55
2023-01-31T13:43:54.531Z,7.28
2023-01-31T13:46:55.379Z,7.70
2023-01-31T13:49:55.865Z,10.68
2023-01-31T13:52:52.787Z,7.00
2023-01-31T13:55:42.352Z,8.02
2023-01-31T13:58:35.267Z,6.65
2023-01-31T14:01:24.550Z,6.25
2023-01-31T14:04:15.889Z,6.18
2023-01-31T14:07:05.900Z,10.02
2023-01-31T14:09:52.145Z,6.00
2023-01-31T14:12:38.478Z,5.22
2023-01-31T14:15:46.854Z,5.28
2023-01-31T14:18:37.029Z,10.75
2023-01-31T14:21:32.071Z,8.65
2023-01-31T14:24:46.622Z,6.20
2023-01-31T14:27:46.888Z,7.85
2023-01-31T14:30:35.714Z,7.63
2023-01-31T14:33:23.896Z,7.45
2023-01-31T14:36:44.796Z,9.15
2023-01-31T14:39:59.279Z,7.95
2023-01-31T14:43:06.392Z,6.20
2023-01-31T14:46:12.339Z,6.53
2023-01-31T14:49:22.728Z,7.55
2023-01-31T14:52:34.779Z,8.27
2023-01-31T14:55:34.785Z,5.60
2023-01-31T14:58:24.537Z,5.82
2023-01-31T15:01:10.584Z,7.63
2023-01-31T15:04:01.738Z,6.72
2023-01-31T15:06:50.472Z,7.13
2023-01-31T15:09:37.761Z,7.63
2023-01-31T15:12:51.955Z,7.38
2023-01-31T15:15:41.181Z,6.72
2023-01-31T15:18:31.110Z,7.53
2023-01-31T15:21:24.353Z,6.85
2023-01-31T15:24:20.631Z,6.15
2023-01-31T15:27:23.160Z,6.45
2023-01-31T15:30:17.051Z,6.63
2023-01-31T15:33:16.407Z,5.85
2023-01-31T15:36:05.162Z,5.87
2023-01-31T15:39:00.879Z,6.33
2023-01-31T15:41:46.413Z,5.32
2023-01-31T15:44:31.772Z,8.07
2023-01-31T15:47:22.794Z,6.93
2023-01-31T15:50:17.065Z,9.35
2023-01-31T15:53:13.208Z,8.65
2023-01-31T15:56:02.653Z,6.57
2023-01-31T15:58:54.145Z,7.50
2023-01-31T16:01:45.941Z,10.98
2023-01-31T16:04:31.243Z,9.95
2023-01-31T16:07:21.785Z,9.55
2023-01-31T16:10:12.005Z,8.50
2023-01-31T16:13:01.954Z,8.77
2023-01-31T16:15:48.022Z,7.05
2023-01-31T16:21:46.707Z,8.07
2023-01-31T16:24:32.854Z,8.02
2023-01-31T16:27:18.583Z,6.78
2023-01-31T16:30:05.294Z,8.90
2023-01-31T16:32:51.939Z,10.77
2023-01-31T16:35:37.526Z,7.40
2023-01-31T16:38:27.014Z,9.00
2023-01-31T16:41:12.886Z,7.47
2023-01-31T16:43:58.456Z,9.10
2023-01-31T16:46:46.353Z,8.07
2023-01-31T16:49:37.333Z,8.98
2023-01-31T16:52:28.976Z,8.10
2023-01-31T16:55:20.963Z,8.88
2023-01-31T16:58:10.074Z,7.68
2023-01-31T17:00:56.639Z,7.80
2023-01-31T17:03:42.755Z,10.52
2023-01-31T17:06:28.338Z,9.10
2023-01-31T17:09:19.199Z,6.78
2023-01-31T17:12:06.243Z,9.65
2023-01-31T17:15:00.879Z,9.55
2023-01-31T17:17:48.172Z,8.75
2023-01-31T17:20:34.007Z,10.57
2023-01-31T17:23:19.532Z,10.77
2023-01-31T17:26:05.426Z,8.07
2023-01-31T17:29:01.520Z,9.55
2023-01-31T17:31:48.066Z,8.95
2023-01-31T17:34:33.612Z,8.90
2023-01-31T17:37:26.802Z,7.70
2023-01-31T17:40:16.959Z,8.77
2023-01-31T17:43:04.705Z,8.50
2023-01-31T17:45:50.152Z,9.13
2023-01-31T17:48:35.730Z,9.75
2023-01-31T17:51:21.352Z,9.82
2023-01-31T17:54:07.056Z,12.90
2023-01-31T17:56:53.065Z,9.20
2023-01-31T17:59:38.860Z,8.90
2023-01-31T18:02:24.416Z,8.02
2023-01-31T18:05:14.388Z,10.30
2023-01-31T18:07:59.962Z,10.45
2023-01-31T18:10:46.401Z,9.88
2023-01-31T18:13:31.953Z,12.60
2023-01-31T18:16:21.484Z,20.63
2023-01-31T18:19:07.231Z,13.77
2023-01-31T18:21:55.381Z,10.05
2023-01-31T18:24:40.953Z,8.63
2023-01-31T18:27:26.404Z,9.27
2023-01-31T18:30:12.189Z,9.23
2023-01-31T18:32:58.117Z,10.02
2023-01-31T18:35:43.961Z,9.10
2023-01-31T18:38:30.300Z,7.47
2023-01-31T18:41:18.895Z,10.90
2023-01-31T18:44:04.665Z,8.40
2023-01-31T18:46:50.404Z,8.90
2023-01-31T18:49:36.212Z,10.27
2023-01-31T18:52:21.715Z,9.32
2023-01-31T18:55:08.092Z,8.20
2023-01-31T18:57:53.736Z,9.63
2023-01-31T19:00:39.216Z,9.60
2023-01-31T19:03:24.654Z,12.75
2023-01-31T19:06:13.608Z,9.73
2023-01-31T19:08:58.703Z,9.95
2023-01-31T19:11:45.054Z,11.80
2023-01-31T19:14:30.727Z,10.38
2023-01-31T19:17:17.202Z,9.60
2023-01-31T19:20:05.404Z,12.90
2023-01-31T19:22:52.250Z,9.48
2023-01-31T19:25:39.435Z,10.15
2023-01-31T19:28:25.471Z,10.55
2023-01-31T19:31:13.469Z,14.00
2023-01-31T19:34:02.237Z,10.45
2023-01-31T19:36:49.022Z,10.52
2023-01-31T19:39:34.381Z,8.90
2023-01-31T19:42:21.482Z,9.55
2023-01-31T19:45:11.209Z,10.13
2023-01-31T19:47:58.869Z,9.88
2023-01-31T19:50:44.388Z,9.20
2023-01-31T19:53:29.897Z,9.38
2023-01-31T19:56:15.942Z,9.43
2023-01-31T19:59:01.576Z,10.25
2023-01-31T20:01:46.796Z,9.73
2023-01-31T20:04:32.645Z,8.95
2023-01-31T20:07:18.415Z,10.93
2023-01-31T20:10:04.505Z,8.38
2023-01-31T20:12:49.708Z,9.80
2023-01-31T20:15:35.236Z,10.15
2023-01-31T20:18:20.760Z,8.88
2023-01-31T20:21:07.026Z,9.43
2023-01-31T20:23:52.657Z,8.65
2023-01-31T20:26:38.488Z,8.43
2023-01-31T20:29:24.011Z,9.38
2023-01-31T20:32:11.462Z,10.32
2023-01-31T20:34:57.443Z,8.68
2023-01-31T20:37:43.438Z,8.45
2023-01-31T20:40:29.062Z,7.88
2023-01-31T20:43:14.454Z,11.93
2023-01-31T20:46:05.191Z,7.35
2023-01-31T20:48:51.002Z,10.30
2023-01-31T20:51:36.378Z,6.72
2023-01-31T20:54:22.402Z,8.77
2023-01-31T20:57:07.983Z,8.35
2023-01-31T20:59:53.511Z,7.68
2023-01-31T21:02:39.197Z,6.95
2023-01-31T21:05:24.715Z,7.93
2023-01-31T21:08:10.530Z,8.05
2023-01-31T21:10:57.736Z,7.65
2023-01-31T21:13:44.043Z,7.38
2023-01-31T21:16:29.535Z,8.90
2023-01-31T21:19:15.962Z,6.78
2023-01-31T21:22:01.173Z,6.32
2023-01-31T21:24:46.477Z,8.57
2023-01-31T21:27:31.900Z,8.18
2023-01-31T21:30:17.903Z,8.00
2023-01-31T21:33:04.346Z,7.00
2023-01-31T21:35:49.967Z,7.63
2023-01-31T21:38:35.918Z,8.18
2023-01-31T21:41:39.968Z,7.38
2023-01-31T21:44:25.357Z,7.13
2023-01-31T21:47:11.379Z,8.32
2023-01-31T21:49:56.498Z,8.88
2023-01-31T21:52:42.228Z,7.63
2023-01-31T21:55:27.959Z,8.77
2023-01-31T21:58:13.791Z,7.90
2023-01-31T22:01:21.452Z,8.68
2023-01-31T22:04:07.516Z,8.57
2023-01-31T22:06:54.642Z,9.18
2023-01-31T22:09:39.886Z,8.82
2023-01-31T22:12:25.448Z,9.85
2023-01-31T22:15:10.936Z,10.60
2023-01-31T22:17:56.499Z,11.73
2023-01-31T22:20:41.833Z,8.75
2023-01-31T22:23:27.519Z,9.77
2023-01-31T22:26:17.842Z,10.85
2023-01-31T22:29:06.361Z,11.45
2023-01-31T22:31:54.695Z,10.15
2023-01-31T22:34:40.228Z,10.43
2023-01-31T22:37:25.834Z,9.43
2023-01-31T22:40:11.857Z,9.48
2023-01-31T22:42:57.451Z,9.68
2023-01-31T22:45:48.191Z,10.75
2023-01-31T22:48:35.335Z,9.95
2023-01-31T22:51:26.370Z,9.52
2023-01-31T22:54:12.042Z,9.48
2023-01-31T22:56:57.708Z,9.18
2023-01-31T22:59:43.157Z,8.98
2023-01-31T23:02:28.683Z,9.43
2023-01-31T23:05:14.533Z,8.73
2023-01-31T23:08:00.255Z,10.82
2023-01-31T23:10:46.013Z,8.30
2023-01-31T23:13:32.385Z,7.68
2023-01-31T23:16:42.359Z,9.32
2023-01-31T23:19:27.750Z,10.90
2023-01-31T23:22:14.440Z,11.07
2023-01-31T23:24:59.542Z,8.77
2023-01-31T23:27:45.719Z,9.30
2023-01-31T23:30:31.488Z,8.43
2023-01-31T23:33:16.847Z,7.93
2023-01-31T23:36:03.678Z,8.73
2023-01-31T23:38:48.807Z,8.68
2023-01-31T23:41:34.219Z,8.15
2023-01-31T23:44:19.763Z,8.63
2023-01-31T23:47:05.312Z,8.57
2023-01-31T23:49:50.605Z,7.90
2023-01-31T23:52:36.061Z,8.48
2023-01-31T23:55:22.809Z,8.40
2023-01-31T23:58:08.312Z,7.85
